Time;durP1;ratioP1;P1;durP2;ratioP2;P2;SDS_P1;SDS_P2;PMS_P1;PMS_P2;Temp;Humidity;BMP_temperature;BMP_pressure;BME280_temperature;BME280_humidity;BME280_pressure;Samples;Min_cycle;Max_cycle;Signal;HPM_P1;HPM_P2
2023/10/20 00:01:01;;;;;;;406.87;155.73;;;;;;;;;;5035203;28;20214;-76
2023/10/20 00:03:27;;;;;;;462.33;178.50;;;;;;;;;;5037392;28;20278;-76
2023/10/20 00:05:53;;;;;;;443.43;173.03;;;;;;;;;;5037907;28;20256;-76
2023/10/20 00:08:19;;;;;;;421.67;155.23;;;;;;;;;;5039288;28;20594;-76
2023/10/20 00:10:45;;;;;;;426.60;163.60;;;;;;;;;;5034210;28;20216;-76
2023/10/20 00:13:11;;;;;;;416.63;155.33;;;;;;;;;;5031411;28;20227;-77
2023/10/20 00:15:37;;;;;;;466.93;188.80;;;;;;;;;;5036640;28;20225;-77
2023/10/20 00:18:03;;;;;;;426.90;160.00;;;;;;;;;;5035495;28;20191;-77
2023/10/20 00:20:29;;;;;;;446.93;174.63;;;;;;;;;;5029400;28;20207;-76
2023/10/20 00:22:55;;;;;;;441.60;171.17;;;;;;;;;;5032769;28;20228;-76
2023/10/20 00:25:21;;;;;;;452.33;176.97;;;;;;;;;;5031996;28;20263;-76
2023/10/20 00:27:47;;;;;;;448.10;171.20;;;;;;;;;;5052822;28;20596;-77
2023/10/20 00:30:14;;;;;;;446.73;173.90;;;;;;;;;;5032367;28;20689;-77
2023/10/20 00:32:41;;;;;;;467.00;184.00;;;;;;;;;;5035924;28;20192;-77
2023/10/20 00:35:13;;;;;;;412.60;159.30;;;;;;;;;;5037912;28;20812;-76
2023/10/20 00:37:38;;;;;;;450.50;181.70;;;;;;;;;;5049300;28;20226;-75
2023/10/20 00:40:09;;;;;;;408.93;153.97;;;;;;;;;;5035062;28;20219;-76
2023/10/20 00:42:35;;;;;;;481.60;195.50;;;;;;;;;;5029662;28;20252;-77
2023/10/20 00:45:01;;;;;;;462.47;178.57;;;;;;;;;;5035353;28;20232;-77
2023/10/20 00:47:28;;;;;;;446.73;172.27;;;;;;;;;;5032412;28;20634;-76
2023/10/20 00:49:54;;;;;;;393.47;149.30;;;;;;;;;;5031934;28;20220;-76
2023/10/20 00:52:21;;;;;;;445.47;177.77;;;;;;;;;;5031958;28;20273;-75
2023/10/20 00:54:48;;;;;;;435.87;168.87;;;;;;;;;;5030002;28;20218;-77
2023/10/20 00:57:16;;;;;;;435.70;171.90;;;;;;;;;;5037472;28;20207;-76
2023/10/20 00:59:42;;;;;;;468.50;185.47;;;;;;;;;;5033408;28;20222;-77
2023/10/20 01:02:08;;;;;;;437.70;166.03;;;;;;;;;;5036488;28;20216;-78
2023/10/20 01:04:34;;;;;;;458.07;177.83;;;;;;;;;;5031105;28;20212;-76
2023/10/20 01:07:00;;;;;;;445.83;170.10;;;;;;;;;;5028816;28;20216;-76
2023/10/20 01:09:26;;;;;;;445.17;166.43;;;;;;;;;;5029374;28;20227;-77
2023/10/20 01:11:53;;;;;;;400.23;151.33;;;;;;;;;;5032855;28;20285;-77
2023/10/20 01:14:19;;;;;;;424.57;165.77;;;;;;;;;;5037448;28;20320;-76
2023/10/20 01:16:45;;;;;;;424.47;164.37;;;;;;;;;;5034759;28;20314;-77
2023/10/20 01:19:10;;;;;;;435.07;168.60;;;;;;;;;;5036076;28;20212;-75
2023/10/20 01:21:37;;;;;;;452.40;176.60;;;;;;;;;;5030052;28;20223;-76
2023/10/20 01:24:04;;;;;;;439.47;168.67;;;;;;;;;;5031458;28;20207;-77
2023/10/20 01:26:31;;;;;;;425.40;163.47;;;;;;;;;;5052302;28;20241;-76
2023/10/20 01:28:57;;;;;;;432.80;166.97;;;;;;;;;;5036734;28;20743;-76
2023/10/20 01:31:22;;;;;;;402.43;153.10;;;;;;;;;;5033617;28;20217;-77
2023/10/20 01:33:49;;;;;;;429.37;166.93;;;;;;;;;;5031818;28;20207;-78
2023/10/20 01:36:15;;;;;;;433.60;161.47;;;;;;;;;;5033124;28;20200;-76
2023/10/20 01:38:41;;;;;;;469.43;182.83;;;;;;;;;;5032378;28;20179;-75
2023/10/20 01:41:07;;;;;;;413.37;153.33;;;;;;;;;;5037208;28;20307;-77
2023/10/20 01:43:33;;;;;;;424.40;161.00;;;;;;;;;;5032497;28;20311;-76
2023/10/20 01:46:00;;;;;;;396.17;149.30;;;;;;;;;;5036615;28;20212;-77
2023/10/20 01:48:26;;;;;;;450.87;178.40;;;;;;;;;;5028529;28;20228;-76
2023/10/20 01:50:52;;;;;;;426.67;164.87;;;;;;;;;;5033681;28;20583;-76
2023/10/20 01:53:18;;;;;;;406.90;154.80;;;;;;;;;;5029190;28;20716;-75
2023/10/20 01:55:50;;;;;;;442.97;170.40;;;;;;;;;;5033716;28;20226;-74
2023/10/20 01:58:18;;;;;;;417.67;159.27;;;;;;;;;;5034583;28;20279;-75
2023/10/20 02:00:44;;;;;;;452.50;175.47;;;;;;;;;;5033211;28;20592;-75
2023/10/20 02:03:10;;;;;;;436.03;165.27;;;;;;;;;;5031962;28;20814;-75
2023/10/20 02:05:36;;;;;;;479.77;190.97;;;;;;;;;;5031430;28;20191;-75
2023/10/20 02:08:02;;;;;;;412.33;155.97;;;;;;;;;;5033544;28;20711;-77
2023/10/20 02:10:29;;;;;;;429.40;163.87;;;;;;;;;;5035258;28;20208;-77
2023/10/20 02:12:55;;;;;;;462.80;182.03;;;;;;;;;;5029780;28;21502;-77
2023/10/20 02:15:21;;;;;;;424.57;163.30;;;;;;;;;;5035902;28;20257;-76
2023/10/20 02:17:47;;;;;;;449.57;174.47;;;;;;;;;;5035782;28;20207;-77
2023/10/20 02:20:15;;;;;;;452.50;179.80;;;;;;;;;;5033613;28;20231;-76
2023/10/20 02:22:41;;;;;;;429.13;172.97;;;;;;;;;;5032032;28;20227;-77
2023/10/20 02:25:09;;;;;;;401.53;156.03;;;;;;;;;;5034252;28;20211;-77
2023/10/20 02:27:36;;;;;;;452.97;178.63;;;;;;;;;;5036693;28;20234;-76
2023/10/20 02:30:03;;;;;;;424.20;166.30;;;;;;;;;;5038282;28;20179;-75
2023/10/20 02:32:29;;;;;;;438.70;169.83;;;;;;;;;;5033796;28;20184;-76
2023/10/20 02:34:55;;;;;;;428.57;164.50;;;;;;;;;;5030924;28;20238;-73
2023/10/20 02:37:20;;;;;;;427.07;162.20;;;;;;;;;;5034205;28;20227;-77
2023/10/20 02:39:46;;;;;;;473.23;192.53;;;;;;;;;;5035870;28;20212;-76
2023/10/20 02:42:12;;;;;;;441.43;176.47;;;;;;;;;;5036053;28;20179;-76
2023/10/20 02:44:38;;;;;;;446.23;178.17;;;;;;;;;;5028716;28;20220;-75
2023/10/20 02:47:04;;;;;;;414.37;155.43;;;;;;;;;;5034196;28;20273;-76
2023/10/20 02:49:30;;;;;;;446.67;173.23;;;;;;;;;;5039506;28;20217;-76
2023/10/20 02:51:56;;;;;;;446.33;176.97;;;;;;;;;;5035846;28;20730;-75
2023/10/20 02:54:22;;;;;;;445.17;175.17;;;;;;;;;;5051254;28;20233;-76
2023/10/20 02:56:48;;;;;;;455.67;177.27;;;;;;;;;;5031526;28;20225;-75
2023/10/20 02:59:14;;;;;;;446.00;172.33;;;;;;;;;;5032680;28;20219;-76
2023/10/20 03:01:40;;;;;;;479.30;190.83;;;;;;;;;;5031964;28;20211;-75
2023/10/20 03:04:06;;;;;;;448.87;181.57;;;;;;;;;;5032127;28;20235;-76
2023/10/20 03:06:32;;;;;;;413.87;160.60;;;;;;;;;;5037611;28;20633;-77
2023/10/20 03:09:00;;;;;;;404.53;157.70;;;;;;;;;;5038196;28;20207;-75
2023/10/20 03:11:26;;;;;;;468.67;191.47;;;;;;;;;;5033242;28;20219;-77
2023/10/20 03:13:51;;;;;;;421.27;168.03;;;;;;;;;;5030666;28;20323;-76
2023/10/20 03:16:17;;;;;;;418.17;160.47;;;;;;;;;;5036891;28;20220;-77
2023/10/20 03:18:43;;;;;;;422.33;166.50;;;;;;;;;;5034489;28;20227;-76
2023/10/20 03:21:10;;;;;;;422.60;166.60;;;;;;;;;;5034425;28;20202;-77
2023/10/20 03:23:36;;;;;;;456.83;181.70;;;;;;;;;;5037224;28;20200;-75
2023/10/20 03:26:03;;;;;;;404.80;157.90;;;;;;;;;;5033658;28;20212;-76
2023/10/20 03:28:28;;;;;;;418.93;162.53;;;;;;;;;;5030481;28;20216;-76
2023/10/20 03:30:54;;;;;;;443.43;178.33;;;;;;;;;;5038266;28;20223;-76
2023/10/20 03:33:20;;;;;;;439.73;172.27;;;;;;;;;;5030171;28;20757;-75
2023/10/20 03:35:47;;;;;;;436.57;173.33;;;;;;;;;;5032512;28;20217;-76
2023/10/20 03:38:14;;;;;;;454.43;177.20;;;;;;;;;;5032865;28;20697;-76
2023/10/20 03:40:40;;;;;;;414.53;161.30;;;;;;;;;;5033084;28;20238;-76
2023/10/20 03:43:08;;;;;;;415.00;157.63;;;;;;;;;;5035919;28;20721;-75
2023/10/20 03:45:51;;;;;;;423.20;161.53;;;;;;;;;;5053152;28;20214;-76
2023/10/20 03:48:19;;;;;;;427.63;162.87;;;;;;;;;;5034500;28;20186;-75
2023/10/20 03:50:49;;;;;;;505.10;200.43;;;;;;;;;;5037249;28;20175;-76
2023/10/20 03:53:27;;;;;;;432.60;164.23;;;;;;;;;;5032366;28;20305;-76
2023/10/20 03:56:11;;;;;;;419.67;165.03;;;;;;;;;;5035366;28;20219;-77
2023/10/20 03:58:37;;;;;;;436.23;167.70;;;;;;;;;;5034071;28;20238;-76
2023/10/20 04:01:06;;;;;;;460.97;180.17;;;;;;;;;;5035414;28;20246;-77
2023/10/20 04:03:33;;;;;;;418.43;159.57;;;;;;;;;;5034642;28;20223;-76
2023/10/20 04:06:02;;;;;;;401.10;149.23;;;;;;;;;;5033450;28;20288;-76
2023/10/20 04:08:28;;;;;;;464.60;181.50;;;;;;;;;;5039286;28;20231;-75
2023/10/20 04:10:58;;;;;;;453.83;176.13;;;;;;;;;;5026796;28;20224;-76
2023/10/20 04:13:24;;;;;;;414.00;151.67;;;;;;;;;;5034801;28;20692;-76
2023/10/20 04:15:51;;;;;;;445.97;170.97;;;;;;;;;;5031191;28;20787;-76
2023/10/20 04:18:19;;;;;;;447.80;176.00;;;;;;;;;;5040031;28;20180;-76
2023/10/20 04:20:48;;;;;;;449.07;180.13;;;;;;;;;;5032069;28;20199;-75
2023/10/20 04:23:14;;;;;;;414.43;156.43;;;;;;;;;;5028784;28;20223;-75
2023/10/20 04:25:44;;;;;;;438.27;165.37;;;;;;;;;;5027140;28;20215;-75
2023/10/20 04:57:50;;;;;;;562.60;238.80;;;;;;;;;;5031471;28;20246;-76
2023/10/20 05:07:54;;;;;;;481.20;187.30;;;;;;;;;;5032771;28;20216;-76
2023/10/20 05:10:20;;;;;;;424.53;166.07;;;;;;;;;;5029862;28;20803;-76
2023/10/20 05:12:47;;;;;;;419.50;165.87;;;;;;;;;;5029076;28;20219;-75
2023/10/20 05:15:13;;;;;;;412.90;158.97;;;;;;;;;;5030728;28;20194;-76
2023/10/20 05:17:39;;;;;;;397.57;150.20;;;;;;;;;;5034466;28;20258;-76
2023/10/20 05:20:06;;;;;;;420.20;159.17;;;;;;;;;;5029893;28;20211;-76
2023/10/20 05:22:32;;;;;;;428.37;162.27;;;;;;;;;;5034670;28;20317;-75
2023/10/20 05:24:58;;;;;;;461.50;180.27;;;;;;;;;;5035684;28;20215;-74
2023/10/20 05:27:24;;;;;;;460.43;187.90;;;;;;;;;;5031108;28;20808;-76
2023/10/20 05:29:50;;;;;;;558.90;241.87;;;;;;;;;;5015098;28;20191;-74
2023/10/20 05:32:17;;;;;;;472.63;193.73;;;;;;;;;;5039291;28;20284;-74
2023/10/20 05:34:43;;;;;;;445.60;171.03;;;;;;;;;;5035618;28;20245;-73
2023/10/20 05:37:09;;;;;;;416.87;162.13;;;;;;;;;;5034847;28;20231;-74
2023/10/20 05:39:35;;;;;;;425.60;161.87;;;;;;;;;;5034292;28;20242;-73
2023/10/20 05:42:04;;;;;;;458.17;187.27;;;;;;;;;;5028338;28;20214;-77
2023/10/20 05:44:34;;;;;;;494.47;204.73;;;;;;;;;;5033668;28;20948;-76
2023/10/20 05:47:00;;;;;;;438.83;175.07;;;;;;;;;;5039757;28;20231;-76
2023/10/20 05:49:26;;;;;;;457.27;188.87;;;;;;;;;;5042559;28;20207;-75
2023/10/20 05:51:52;;;;;;;423.43;167.50;;;;;;;;;;5064243;28;20629;-75
2023/10/20 05:54:23;;;;;;;392.33;150.97;;;;;;;;;;5022329;28;20294;-76
2023/10/20 05:56:49;;;;;;;447.07;173.43;;;;;;;;;;5055796;28;20225;-72
2023/10/20 05:59:15;;;;;;;405.73;157.03;;;;;;;;;;5070433;28;20207;-71
2023/10/20 06:01:41;;;;;;;398.80;156.00;;;;;;;;;;5046158;28;20215;-73
2023/10/20 06:04:08;;;;;;;423.90;172.27;;;;;;;;;;5073812;28;20292;-73
2023/10/20 06:06:34;;;;;;;384.37;150.40;;;;;;;;;;5051345;28;20861;-73
2023/10/20 06:09:00;;;;;;;380.70;146.77;;;;;;;;;;5055084;28;20253;-71
2023/10/20 06:11:25;;;;;;;392.60;149.10;;;;;;;;;;5055930;28;20174;-74
2023/10/20 06:13:51;;;;;;;409.43;159.20;;;;;;;;;;5069680;28;20885;-74
2023/10/20 06:16:18;;;;;;;448.33;180.57;;;;;;;;;;5043226;28;20281;-74
2023/10/20 06:18:44;;;;;;;400.40;157.43;;;;;;;;;;5049280;28;20585;-70
2023/10/20 06:21:14;;;;;;;391.80;152.63;;;;;;;;;;5062985;28;20194;-73
2023/10/20 06:23:40;;;;;;;442.10;170.80;;;;;;;;;;5046527;28;20234;-74
2023/10/20 06:26:06;;;;;;;399.87;151.73;;;;;;;;;;5056935;28;20227;-76
2023/10/20 06:28:32;;;;;;;424.27;165.23;;;;;;;;;;5049727;28;20815;-75
2023/10/20 06:31:00;;;;;;;418.43;158.07;;;;;;;;;;5040923;28;20215;-75
2023/10/20 06:33:32;;;;;;;414.23;158.67;;;;;;;;;;5029376;28;20585;-73
2023/10/20 06:36:11;;;;;;;430.80;165.93;;;;;;;;;;5033778;28;20277;-72
2023/10/20 06:38:46;;;;;;;432.33;161.57;;;;;;;;;;5027952;28;21035;-73
2023/10/20 06:41:15;;;;;;;438.10;167.47;;;;;;;;;;5036312;28;20220;-69
2023/10/20 06:43:41;;;;;;;455.03;177.00;;;;;;;;;;5032386;28;20226;-70
2023/10/20 06:46:07;;;;;;;416.27;158.37;;;;;;;;;;5035872;28;20827;-71
2023/10/20 06:48:33;;;;;;;398.87;150.77;;;;;;;;;;5031649;28;20227;-75
2023/10/20 06:50:58;;;;;;;409.67;155.93;;;;;;;;;;5033017;28;20177;-73
2023/10/20 06:53:25;;;;;;;420.37;160.37;;;;;;;;;;5033360;28;20215;-73
2023/10/20 06:55:51;;;;;;;405.70;154.80;;;;;;;;;;5029261;28;20266;-72
2023/10/20 06:58:17;;;;;;;428.53;165.27;;;;;;;;;;5029696;28;20212;-73
2023/10/20 07:00:44;;;;;;;407.13;154.03;;;;;;;;;;5029039;28;20220;-72
2023/10/20 07:03:10;;;;;;;445.47;176.60;;;;;;;;;;5026910;28;20246;-73
2023/10/20 07:05:37;;;;;;;477.87;192.27;;;;;;;;;;5012433;28;21182;-73
2023/10/20 07:08:04;;;;;;;471.37;192.23;;;;;;;;;;5015778;28;20223;-73
2023/10/20 07:10:29;;;;;;;458.80;175.73;;;;;;;;;;5034759;28;20215;-73
2023/10/20 07:12:55;;;;;;;481.17;195.57;;;;;;;;;;5023265;28;20219;-72
2023/10/20 07:15:21;;;;;;;500.00;212.23;;;;;;;;;;5018096;28;20243;-74
2023/10/20 07:17:48;;;;;;;403.87;151.97;;;;;;;;;;5034029;28;20947;-73
2023/10/20 07:20:14;;;;;;;393.33;148.37;;;;;;;;;;5033353;28;20242;-74
2023/10/20 07:22:40;;;;;;;432.67;167.40;;;;;;;;;;5028538;28;20257;-74
2023/10/20 07:25:07;;;;;;;477.27;193.43;;;;;;;;;;5021063;28;20230;-74
2023/10/20 07:27:33;;;;;;;497.97;203.00;;;;;;;;;;5027038;28;20337;-74
2023/10/20 07:29:59;;;;;;;443.20;174.80;;;;;;;;;;5028961;28;20184;-73
2023/10/20 07:32:25;;;;;;;403.83;152.73;;;;;;;;;;5032307;28;20196;-74
2023/10/20 07:34:51;;;;;;;402.10;152.30;;;;;;;;;;5033445;28;20215;-74
2023/10/20 07:37:17;;;;;;;434.30;168.23;;;;;;;;;;5032028;28;20282;-74
2023/10/20 07:39:44;;;;;;;427.93;165.47;;;;;;;;;;5032870;28;20740;-74
2023/10/20 07:42:10;;;;;;;461.17;181.53;;;;;;;;;;5031747;28;20278;-73
2023/10/20 07:44:36;;;;;;;531.87;226.57;;;;;;;;;;5024604;28;20292;-73
2023/10/20 07:47:02;;;;;;;408.40;156.80;;;;;;;;;;5056313;28;20264;-72
2023/10/20 07:49:28;;;;;;;383.27;142.87;;;;;;;;;;5045981;28;20221;-73
2023/10/20 07:51:54;;;;;;;431.23;164.90;;;;;;;;;;5041105;28;20250;-73
2023/10/20 07:54:20;;;;;;;399.70;150.37;;;;;;;;;;5048579;28;20227;-73
2023/10/20 07:56:47;;;;;;;408.40;154.90;;;;;;;;;;5046298;28;20584;-73
2023/10/20 07:59:13;;;;;;;419.10;161.30;;;;;;;;;;5026331;28;20201;-73
2023/10/20 08:01:39;;;;;;;430.53;164.83;;;;;;;;;;5043875;28;20207;-72
2023/10/20 08:04:05;;;;;;;421.73;164.27;;;;;;;;;;5042117;28;20305;-73
2023/10/20 08:06:31;;;;;;;455.30;179.17;;;;;;;;;;5052920;28;20211;-73
2023/10/20 08:08:57;;;;;;;476.10;192.90;;;;;;;;;;5028646;28;20187;-73
2023/10/20 08:11:23;;;;;;;427.77;159.70;;;;;;;;;;5064577;28;20298;-72
2023/10/20 08:13:52;;;;;;;433.70;164.47;;;;;;;;;;5065214;28;20307;-72
2023/10/20 08:16:20;;;;;;;410.37;152.87;;;;;;;;;;5031392;28;20224;-72
2023/10/20 08:18:46;;;;;;;401.40;152.90;;;;;;;;;;5035198;28;20211;-74
2023/10/20 08:21:12;;;;;;;452.33;179.43;;;;;;;;;;5042878;28;20282;-73
2023/10/20 08:23:38;;;;;;;413.83;157.70;;;;;;;;;;5037662;28;20254;-73
2023/10/20 08:26:04;;;;;;;441.13;169.80;;;;;;;;;;5043833;28;20222;-73
2023/10/20 08:28:31;;;;;;;448.10;178.20;;;;;;;;;;5035779;28;20215;-73
2023/10/20 08:31:07;;;;;;;399.20;153.80;;;;;;;;;;5049425;28;20211;-72
2023/10/20 08:33:36;;;;;;;408.80;154.67;;;;;;;;;;5046321;28;20234;-73
2023/10/20 08:36:20;;;;;;;474.50;183.67;;;;;;;;;;5043276;28;20210;-72
2023/10/20 08:38:47;;;;;;;398.17;149.53;;;;;;;;;;5046941;28;20230;-73
2023/10/20 08:41:14;;;;;;;405.67;151.33;;;;;;;;;;5040185;28;20211;-73
2023/10/20 08:43:41;;;;;;;425.47;163.77;;;;;;;;;;5036615;28;20211;-73
2023/10/20 08:46:08;;;;;;;457.27;180.97;;;;;;;;;;5036312;28;20212;-73
2023/10/20 08:48:34;;;;;;;448.00;173.57;;;;;;;;;;5037218;28;20214;-72
2023/10/20 08:51:00;;;;;;;444.90;178.23;;;;;;;;;;5043928;28;20297;-72
2023/10/20 08:53:27;;;;;;;428.43;164.90;;;;;;;;;;5042772;28;20238;-73
2023/10/20 08:55:53;;;;;;;459.97;182.30;;;;;;;;;;5025886;28;21023;-74
2023/10/20 08:58:19;;;;;;;423.77;164.43;;;;;;;;;;5038421;28;20214;-74
2023/10/20 09:00:46;;;;;;;416.63;161.77;;;;;;;;;;5043175;28;20272;-74
2023/10/20 09:03:12;;;;;;;517.60;211.47;;;;;;;;;;5011783;28;20497;-73
2023/10/20 09:05:39;;;;;;;416.17;159.30;;;;;;;;;;5022559;28;20198;-73
2023/10/20 09:08:05;;;;;;;406.67;154.10;;;;;;;;;;5033004;28;20250;-73
2023/10/20 09:10:31;;;;;;;453.27;181.10;;;;;;;;;;5027412;28;20215;-73
2023/10/20 09:12:57;;;;;;;486.40;194.20;;;;;;;;;;5026875;28;20597;-72
2023/10/20 09:15:24;;;;;;;419.13;156.77;;;;;;;;;;5024757;28;20217;-74
2023/10/20 09:17:56;;;;;;;420.60;162.93;;;;;;;;;;5027919;28;20290;-73
2023/10/20 09:20:23;;;;;;;421.30;160.37;;;;;;;;;;5030622;28;20219;-74
2023/10/20 09:22:49;;;;;;;459.40;186.13;;;;;;;;;;5027286;28;20309;-73
2023/10/20 09:25:15;;;;;;;406.20;153.60;;;;;;;;;;5030388;28;20303;-74
2023/10/20 09:27:41;;;;;;;412.30;155.07;;;;;;;;;;5027406;28;20564;-74
2023/10/20 09:30:11;;;;;;;438.00;171.33;;;;;;;;;;5024264;28;20191;-74
2023/10/20 09:32:37;;;;;;;429.13;163.43;;;;;;;;;;5029878;28;20184;-74
2023/10/20 09:35:06;;;;;;;433.13;168.67;;;;;;;;;;5025636;28;20227;-74
2023/10/20 09:37:36;;;;;;;422.53;161.67;;;;;;;;;;5022650;28;20357;-72
2023/10/20 09:40:06;;;;;;;431.73;172.93;;;;;;;;;;5020156;28;20226;-68
2023/10/20 09:42:35;;;;;;;428.77;162.37;;;;;;;;;;5027281;28;20686;-71
2023/10/20 09:45:09;;;;;;;451.33;177.23;;;;;;;;;;5020762;28;20199;-70
2023/10/20 09:47:36;;;;;;;439.37;167.80;;;;;;;;;;5025865;28;20180;-71
2023/10/20 09:50:02;;;;;;;435.10;168.20;;;;;;;;;;5029026;28;20204;-75
2023/10/20 09:52:29;;;;;;;438.07;168.63;;;;;;;;;;5024417;28;20220;-73
2023/10/20 09:54:55;;;;;;;420.33;158.43;;;;;;;;;;5023190;28;20219;-74
2023/10/20 09:57:22;;;;;;;481.93;199.30;;;;;;;;;;5024958;28;20227;-76
2023/10/20 09:59:52;;;;;;;395.07;152.43;;;;;;;;;;5026232;28;20279;-74
2023/10/20 10:02:27;;;;;;;422.07;164.77;;;;;;;;;;5025710;28;20216;-75
2023/10/20 10:04:53;;;;;;;430.73;167.10;;;;;;;;;;5029298;28;20249;-75
2023/10/20 10:07:27;;;;;;;406.27;154.07;;;;;;;;;;5026120;28;20224;-75
2023/10/20 10:09:55;;;;;;;450.03;179.10;;;;;;;;;;5018212;28;20297;-71
2023/10/20 10:12:21;;;;;;;452.30;174.67;;;;;;;;;;5044658;28;20221;-70
2023/10/20 10:15:05;;;;;;;419.53;162.60;;;;;;;;;;5055196;28;20861;-70
2023/10/20 10:17:33;;;;;;;461.60;183.17;;;;;;;;;;5052992;28;20292;-70
2023/10/20 10:19:59;;;;;;;441.10;170.17;;;;;;;;;;5039467;28;20211;-70
2023/10/20 10:22:31;;;;;;;411.40;156.07;;;;;;;;;;5040842;28;20280;-70
2023/10/20 10:25:00;;;;;;;434.17;162.73;;;;;;;;;;5031975;28;20297;-70
2023/10/20 10:27:27;;;;;;;492.77;191.10;;;;;;;;;;5035206;28;20253;-70
2023/10/20 10:29:53;;;;;;;484.13;189.17;;;;;;;;;;5028936;28;20241;-70
2023/10/20 10:32:20;;;;;;;436.40;169.07;;;;;;;;;;5038536;28;22074;-70
2023/10/20 10:34:47;;;;;;;428.23;160.10;;;;;;;;;;5054029;28;20211;-70
2023/10/20 10:37:14;;;;;;;471.60;185.83;;;;;;;;;;5046356;28;20228;-71
2023/10/20 10:39:40;;;;;;;417.23;157.43;;;;;;;;;;5047406;28;20654;-71
2023/10/20 10:42:06;;;;;;;450.60;177.73;;;;;;;;;;5039848;28;20210;-71
2023/10/20 10:44:36;;;;;;;434.47;167.50;;;;;;;;;;5054639;28;20205;-70
2023/10/20 10:47:03;;;;;;;455.30;176.27;;;;;;;;;;5038924;28;20330;-71
2023/10/20 10:49:30;;;;;;;422.63;160.47;;;;;;;;;;5034687;28;20254;-71
2023/10/20 10:51:56;;;;;;;451.77;171.13;;;;;;;;;;5031231;28;20666;-72
2023/10/20 10:54:24;;;;;;;459.53;176.97;;;;;;;;;;5034775;28;20807;-71
2023/10/20 10:56:50;;;;;;;428.53;165.00;;;;;;;;;;5037988;28;20215;-71
2023/10/20 10:59:16;;;;;;;493.67;196.93;;;;;;;;;;5034188;28;20207;-72
2023/10/20 11:01:42;;;;;;;469.03;191.00;;;;;;;;;;5032232;28;20215;-72
2023/10/20 11:04:09;;;;;;;449.77;176.60;;;;;;;;;;5035400;28;20243;-73
2023/10/20 11:06:44;;;;;;;455.83;184.73;;;;;;;;;;5035274;28;20320;-71
2023/10/20 11:09:19;;;;;;;482.30;200.80;;;;;;;;;;5023789;28;20187;-70
2023/10/20 11:11:47;;;;;;;411.47;161.40;;;;;;;;;;5041564;28;20629;-71
2023/10/20 11:14:14;;;;;;;447.70;177.47;;;;;;;;;;5042353;28;20573;-71
2023/10/20 11:16:40;;;;;;;479.20;193.60;;;;;;;;;;5063247;28;20787;-71
2023/10/20 11:19:06;;;;;;;455.47;182.70;;;;;;;;;;5036031;28;20211;-71
2023/10/20 11:21:45;;;;;;;431.67;170.30;;;;;;;;;;5036273;28;20723;-71
2023/10/20 11:24:11;;;;;;;472.70;198.03;;;;;;;;;;5034619;28;20218;-71
2023/10/20 11:26:37;;;;;;;426.13;163.67;;;;;;;;;;5040626;28;20314;-71
2023/10/20 11:29:04;;;;;;;420.87;168.03;;;;;;;;;;5033868;28;20219;-71
2023/10/20 11:31:30;;;;;;;439.77;170.37;;;;;;;;;;5037904;28;20295;-70
2023/10/20 11:33:56;;;;;;;424.53;160.03;;;;;;;;;;5038761;28;20220;-70
2023/10/20 11:36:22;;;;;;;503.17;206.97;;;;;;;;;;5021563;28;20223;-69
2023/10/20 11:38:48;;;;;;;457.97;179.13;;;;;;;;;;5033712;28;20180;-71
2023/10/20 11:41:14;;;;;;;423.57;166.33;;;;;;;;;;5057390;28;20215;-71
2023/10/20 11:43:40;;;;;;;388.90;150.80;;;;;;;;;;5024973;28;20597;-72
2023/10/20 11:46:10;;;;;;;486.90;199.67;;;;;;;;;;5029801;28;20208;-71
2023/10/20 11:48:36;;;;;;;444.07;176.03;;;;;;;;;;5042900;28;20239;-74
2023/10/20 11:51:02;;;;;;;449.40;179.03;;;;;;;;;;5035976;28;20645;-70
2023/10/20 11:53:28;;;;;;;456.40;180.67;;;;;;;;;;5044939;28;20251;-72
2023/10/20 11:55:54;;;;;;;440.20;168.43;;;;;;;;;;5040503;28;20512;-71
2023/10/20 11:58:20;;;;;;;415.60;161.83;;;;;;;;;;5040644;28;20301;-76
2023/10/20 12:00:46;;;;;;;407.87;155.77;;;;;;;;;;5043802;28;20817;-75
2023/10/20 12:03:12;;;;;;;404.20;153.47;;;;;;;;;;5061750;28;20212;-75
2023/10/20 12:05:39;;;;;;;414.70;160.13;;;;;;;;;;5078570;28;20282;-75
2023/10/20 12:08:05;;;;;;;428.43;164.43;;;;;;;;;;5054952;28;20474;-75
2023/10/20 12:10:32;;;;;;;419.37;157.77;;;;;;;;;;5073537;28;20211;-75
2023/10/20 12:13:02;;;;;;;443.00;168.43;;;;;;;;;;5052529;28;20222;-76
2023/10/20 12:15:28;;;;;;;425.83;164.00;;;;;;;;;;5048928;28;20222;-75
2023/10/20 12:17:54;;;;;;;428.10;163.77;;;;;;;;;;5071158;28;20171;-76
2023/10/20 12:20:19;;;;;;;422.17;164.83;;;;;;;;;;5075680;28;20219;-76
2023/10/20 12:22:45;;;;;;;424.07;159.63;;;;;;;;;;5060462;28;20215;-75
2023/10/20 12:25:11;;;;;;;439.87;175.40;;;;;;;;;;5062179;28;20210;-75
2023/10/20 12:27:37;;;;;;;421.93;157.83;;;;;;;;;;5052270;28;20267;-76
2023/10/20 12:30:04;;;;;;;474.33;191.53;;;;;;;;;;5041275;28;20313;-74
2023/10/20 12:32:29;;;;;;;450.20;173.27;;;;;;;;;;5054277;28;20176;-75
2023/10/20 12:34:55;;;;;;;398.83;150.77;;;;;;;;;;5052111;28;20210;-76
2023/10/20 12:37:21;;;;;;;453.97;176.97;;;;;;;;;;5048343;28;20242;-76
2023/10/20 12:39:48;;;;;;;396.43;148.67;;;;;;;;;;5052737;28;20222;-76
2023/10/20 12:42:14;;;;;;;436.00;173.83;;;;;;;;;;5066402;28;20202;-76
2023/10/20 12:44:39;;;;;;;469.30;187.90;;;;;;;;;;5052022;28;20203;-76
2023/10/20 12:47:06;;;;;;;432.03;166.07;;;;;;;;;;5073356;28;20210;-76
2023/10/20 12:49:32;;;;;;;419.13;158.27;;;;;;;;;;5073864;28;20509;-76
2023/10/20 12:51:58;;;;;;;410.97;160.13;;;;;;;;;;5071709;28;20213;-76
2023/10/20 12:54:23;;;;;;;402.63;155.97;;;;;;;;;;5055694;28;20211;-76
2023/10/20 12:56:49;;;;;;;402.80;151.23;;;;;;;;;;5053032;28;20217;-77
2023/10/20 12:59:15;;;;;;;533.97;230.37;;;;;;;;;;5059413;28;20203;-76
2023/10/20 13:01:41;;;;;;;395.87;153.83;;;;;;;;;;5050657;28;20661;-76
2023/10/20 13:04:08;;;;;;;446.00;173.43;;;;;;;;;;5067593;28;20246;-76
2023/10/20 13:06:33;;;;;;;431.00;167.17;;;;;;;;;;5051069;28;20297;-77
2023/10/20 13:08:59;;;;;;;436.77;168.93;;;;;;;;;;5062548;28;20263;-69
2023/10/20 13:11:25;;;;;;;461.50;184.70;;;;;;;;;;5041076;28;20204;-75
2023/10/20 13:13:51;;;;;;;454.83;180.97;;;;;;;;;;5042197;28;20215;-74
2023/10/20 13:16:17;;;;;;;452.67;180.50;;;;;;;;;;5038343;28;20219;-74
2023/10/20 13:18:43;;;;;;;437.97;170.03;;;;;;;;;;5030198;28;20291;-74
2023/10/20 13:21:09;;;;;;;471.97;194.00;;;;;;;;;;5053465;28;20657;-74
2023/10/20 13:23:35;;;;;;;406.53;155.03;;;;;;;;;;5056248;28;20207;-74
2023/10/20 13:26:04;;;;;;;405.47;154.60;;;;;;;;;;5055573;28;20638;-74
2023/10/20 13:28:30;;;;;;;401.33;151.13;;;;;;;;;;5056731;28;20264;-74
2023/10/20 13:31:21;;;;;;;400.07;150.80;;;;;;;;;;5049129;28;20306;-74
2023/10/20 13:33:47;;;;;;;424.13;164.27;;;;;;;;;;5056273;28;20229;-74
2023/10/20 13:36:13;;;;;;;432.33;167.87;;;;;;;;;;5059393;28;20206;-74
2023/10/20 13:38:39;;;;;;;441.67;173.53;;;;;;;;;;5050896;28;20175;-73
2023/10/20 13:41:06;;;;;;;395.83;147.50;;;;;;;;;;5055563;28;20215;-74
2023/10/20 13:43:32;;;;;;;402.20;153.37;;;;;;;;;;5045322;28;20261;-75
2023/10/20 13:45:58;;;;;;;568.70;246.60;;;;;;;;;;5055990;28;20483;-73
2023/10/20 13:48:24;;;;;;;426.70;164.27;;;;;;;;;;5039179;28;20219;-75
2023/10/20 13:50:50;;;;;;;423.40;160.73;;;;;;;;;;5034329;28;20190;-75
2023/10/20 13:53:16;;;;;;;449.60;178.00;;;;;;;;;;5036481;28;20229;-76
2023/10/20 13:55:43;;;;;;;424.30;163.20;;;;;;;;;;5037061;28;20219;-75
2023/10/20 13:58:11;;;;;;;397.63;148.27;;;;;;;;;;5054481;28;20719;-75
2023/10/20 14:00:37;;;;;;;433.93;170.10;;;;;;;;;;5029347;28;20278;-75
2023/10/20 14:03:03;;;;;;;412.10;155.40;;;;;;;;;;5054650;28;20239;-77
2023/10/20 14:05:29;;;;;;;420.27;160.77;;;;;;;;;;5036129;28;20175;-76
2023/10/20 14:07:59;;;;;;;432.30;165.17;;;;;;;;;;5035604;28;20211;-77
2023/10/20 14:10:28;;;;;;;458.57;184.50;;;;;;;;;;5034708;28;20215;-76
2023/10/20 14:12:55;;;;;;;405.17;152.97;;;;;;;;;;5043081;28;20324;-77
2023/10/20 14:15:21;;;;;;;439.07;173.70;;;;;;;;;;5046477;28;20268;-77
2023/10/20 14:17:48;;;;;;;449.03;176.07;;;;;;;;;;5038176;28;20965;-77
2023/10/20 14:20:14;;;;;;;434.67;169.70;;;;;;;;;;5057852;28;20292;-75
2023/10/20 14:22:40;;;;;;;457.57;185.87;;;;;;;;;;5061150;28;20215;-77
2023/10/20 14:25:06;;;;;;;421.27;157.60;;;;;;;;;;5051661;28;20285;-77
2023/10/20 14:27:33;;;;;;;471.27;185.63;;;;;;;;;;5061722;28;20236;-77